sensor_id;sensor_type;location;lat;lon;timestamp;temperature;humidity
30999;DHT22;20549;50.042;8.968;2022-12-07T00:00:11;6.40;97.00
30999;DHT22;20549;50.042;8.968;2022-12-07T00:02:38;6.40;96.90
30999;DHT22;20549;50.042;8.968;2022-12-07T00:05:04;6.40;97.00
30999;DHT22;20549;50.042;8.968;2022-12-07T00:07:31;6.40;97.00
30999;DHT22;20549;50.042;8.968;2022-12-07T00:09:58;6.40;97.00
30999;DHT22;20549;50.042;8.968;2022-12-07T00:12:24;6.40;97.00
30999;DHT22;20549;50.042;8.968;2022-12-07T00:14:51;6.40;97.10
30999;DHT22;20549;50.042;8.968;2022-12-07T00:17:17;6.40;97.10
30999;DHT22;20549;50.042;8.968;2022-12-07T00:19:44;6.40;97.20
30999;DHT22;20549;50.042;8.968;2022-12-07T00:22:10;6.40;97.20
30999;DHT22;20549;50.042;8.968;2022-12-07T00:24:37;6.40;97.30
30999;DHT22;20549;50.042;8.968;2022-12-07T00:27:04;6.40;97.30
30999;DHT22;20549;50.042;8.968;2022-12-07T00:29:30;6.40;97.30
30999;DHT22;20549;50.042;8.968;2022-12-07T00:31:57;6.40;97.30
30999;DHT22;20549;50.042;8.968;2022-12-07T00:34:23;6.50;97.30
30999;DHT22;20549;50.042;8.968;2022-12-07T00:36:50;6.40;97.30
30999;DHT22;20549;50.042;8.968;2022-12-07T00:39:17;6.50;97.40
30999;DHT22;20549;50.042;8.968;2022-12-07T00:41:43;6.40;97.30
30999;DHT22;20549;50.042;8.968;2022-12-07T00:44:10;6.50;97.40
30999;DHT22;20549;50.042;8.968;2022-12-07T00:46:36;6.50;97.50
30999;DHT22;20549;50.042;8.968;2022-12-07T00:49:03;6.50;97.50
30999;DHT22;20549;50.042;8.968;2022-12-07T00:51:29;6.50;97.50
30999;DHT22;20549;50.042;8.968;2022-12-07T00:53:56;6.50;97.50
30999;DHT22;20549;50.042;8.968;2022-12-07T00:56:24;6.60;97.50
30999;DHT22;20549;50.042;8.968;2022-12-07T00:58:59;6.60;97.50
30999;DHT22;20549;50.042;8.968;2022-12-07T01:01:25;6.60;97.70
30999;DHT22;20549;50.042;8.968;2022-12-07T01:03:51;6.60;97.40
30999;DHT22;20549;50.042;8.968;2022-12-07T01:06:18;6.60;97.40
30999;DHT22;20549;50.042;8.968;2022-12-07T01:08:44;6.60;97.40
30999;DHT22;20549;50.042;8.968;2022-12-07T01:11:12;6.60;97.40
30999;DHT22;20549;50.042;8.968;2022-12-07T01:13:37;6.60;97.40
30999;DHT22;20549;50.042;8.968;2022-12-07T01:16:05;6.70;97.40
30999;DHT22;20549;50.042;8.968;2022-12-07T01:18:31;6.70;97.40
30999;DHT22;20549;50.042;8.968;2022-12-07T01:21:04;6.70;97.40
30999;DHT22;20549;50.042;8.968;2022-12-07T01:23:27;6.70;97.30
30999;DHT22;20549;50.042;8.968;2022-12-07T01:26:00;6.70;97.30
30999;DHT22;20549;50.042;8.968;2022-12-07T01:28:23;6.70;97.20
30999;DHT22;20549;50.042;8.968;2022-12-07T01:31:00;6.70;97.20
30999;DHT22;20549;50.042;8.968;2022-12-07T01:33:29;6.70;97.30
30999;DHT22;20549;50.042;8.968;2022-12-07T01:36:00;6.70;97.40
30999;DHT22;20549;50.042;8.968;2022-12-07T01:38:21;6.70;97.40
30999;DHT22;20549;50.042;8.968;2022-12-07T01:40:53;6.80;97.60
30999;DHT22;20549;50.042;8.968;2022-12-07T01:43:17;6.80;97.60
30999;DHT22;20549;50.042;8.968;2022-12-07T01:45:44;6.80;97.60
30999;DHT22;20549;50.042;8.968;2022-12-07T01:48:11;6.80;97.60
30999;DHT22;20549;50.042;8.968;2022-12-07T01:50:37;6.80;97.60
30999;DHT22;20549;50.042;8.968;2022-12-07T01:53:04;6.80;97.60
30999;DHT22;20549;50.042;8.968;2022-12-07T01:55:30;6.80;97.50
30999;DHT22;20549;50.042;8.968;2022-12-07T01:57:57;6.80;97.50
30999;DHT22;20549;50.042;8.968;2022-12-07T02:00:23;6.80;97.60
30999;DHT22;20549;50.042;8.968;2022-12-07T02:03:07;6.80;97.60
30999;DHT22;20549;50.042;8.968;2022-12-07T02:05:32;6.80;97.60
30999;DHT22;20549;50.042;8.968;2022-12-07T02:07:58;6.80;97.50
30999;DHT22;20549;50.042;8.968;2022-12-07T02:10:26;6.80;97.60
30999;DHT22;20549;50.042;8.968;2022-12-07T02:12:53;6.80;97.80
30999;DHT22;20549;50.042;8.968;2022-12-07T02:15:18;6.80;97.90
30999;DHT22;20549;50.042;8.968;2022-12-07T02:17:51;6.80;98.00
30999;DHT22;20549;50.042;8.968;2022-12-07T02:20:38;6.80;98.00
30999;DHT22;20549;50.042;8.968;2022-12-07T02:25:38;6.90;97.90
30999;DHT22;20549;50.042;8.968;2022-12-07T02:28:07;6.90;98.00
30999;DHT22;20549;50.042;8.968;2022-12-07T02:30:33;6.90;98.10
30999;DHT22;20549;50.042;8.968;2022-12-07T02:33:16;6.90;98.10
30999;DHT22;20549;50.042;8.968;2022-12-07T02:38:30;7.00;98.10
30999;DHT22;20549;50.042;8.968;2022-12-07T02:41:00;7.00;98.00
30999;DHT22;20549;50.042;8.968;2022-12-07T02:43:25;7.00;97.90
30999;DHT22;20549;50.042;8.968;2022-12-07T02:45:51;7.00;97.90
30999;DHT22;20549;50.042;8.968;2022-12-07T02:48:18;7.00;98.00
30999;DHT22;20549;50.042;8.968;2022-12-07T02:50:45;7.00;98.00
30999;DHT22;20549;50.042;8.968;2022-12-07T02:53:36;7.00;98.00
30999;DHT22;20549;50.042;8.968;2022-12-07T02:56:03;7.00;98.00
30999;DHT22;20549;50.042;8.968;2022-12-07T02:58:40;7.00;97.90
30999;DHT22;20549;50.042;8.968;2022-12-07T03:01:28;7.00;97.90
30999;DHT22;20549;50.042;8.968;2022-12-07T03:03:29;7.00;97.90
30999;DHT22;20549;50.042;8.968;2022-12-07T03:06:06;7.00;97.90
30999;DHT22;20549;50.042;8.968;2022-12-07T03:08:38;7.00;97.80
30999;DHT22;20549;50.042;8.968;2022-12-07T03:11:03;7.10;97.80
30999;DHT22;20549;50.042;8.968;2022-12-07T03:13:35;7.10;97.80
30999;DHT22;20549;50.042;8.968;2022-12-07T03:21:21;7.10;97.70
30999;DHT22;20549;50.042;8.968;2022-12-07T03:23:48;7.10;97.70
30999;DHT22;20549;50.042;8.968;2022-12-07T03:26:13;7.10;97.80
30999;DHT22;20549;50.042;8.968;2022-12-07T03:28:40;7.10;97.80
30999;DHT22;20549;50.042;8.968;2022-12-07T03:31:16;7.10;97.90
30999;DHT22;20549;50.042;8.968;2022-12-07T03:34:06;7.10;98.00
30999;DHT22;20549;50.042;8.968;2022-12-07T03:36:20;7.10;97.90
30999;DHT22;20549;50.042;8.968;2022-12-07T03:38:54;7.10;97.80
30999;DHT22;20549;50.042;8.968;2022-12-07T03:41:22;7.10;97.60
30999;DHT22;20549;50.042;8.968;2022-12-07T03:43:46;7.10;97.50
30999;DHT22;20549;50.042;8.968;2022-12-07T03:46:30;7.10;97.50
30999;DHT22;20549;50.042;8.968;2022-12-07T03:52:07;7.10;97.50
30999;DHT22;20549;50.042;8.968;2022-12-07T03:56:59;7.10;97.50
30999;DHT22;20549;50.042;8.968;2022-12-07T03:59:25;7.10;97.50
30999;DHT22;20549;50.042;8.968;2022-12-07T04:01:53;7.10;97.50
30999;DHT22;20549;50.042;8.968;2022-12-07T04:04:19;7.20;97.60
30999;DHT22;20549;50.042;8.968;2022-12-07T04:06:45;7.20;97.70
30999;DHT22;20549;50.042;8.968;2022-12-07T04:09:12;7.20;97.70
30999;DHT22;20549;50.042;8.968;2022-12-07T04:11:38;7.20;97.70
30999;DHT22;20549;50.042;8.968;2022-12-07T04:14:05;7.20;97.60
30999;DHT22;20549;50.042;8.968;2022-12-07T04:16:56;7.30;97.60
30999;DHT22;20549;50.042;8.968;2022-12-07T04:19:26;7.30;97.50
30999;DHT22;20549;50.042;8.968;2022-12-07T04:21:51;7.30;97.40
30999;DHT22;20549;50.042;8.968;2022-12-07T04:24:18;7.30;97.20
30999;DHT22;20549;50.042;8.968;2022-12-07T04:26:45;7.30;97.10
30999;DHT22;20549;50.042;8.968;2022-12-07T04:29:11;7.30;97.10
30999;DHT22;20549;50.042;8.968;2022-12-07T04:31:38;7.30;97.10
30999;DHT22;20549;50.042;8.968;2022-12-07T04:34:04;7.30;97.10
30999;DHT22;20549;50.042;8.968;2022-12-07T04:36:31;7.30;97.10
30999;DHT22;20549;50.042;8.968;2022-12-07T04:38:58;7.30;97.10
30999;DHT22;20549;50.042;8.968;2022-12-07T04:41:24;7.30;97.10
30999;DHT22;20549;50.042;8.968;2022-12-07T04:43:56;7.30;97.10
30999;DHT22;20549;50.042;8.968;2022-12-07T04:46:22;7.30;97.00
30999;DHT22;20549;50.042;8.968;2022-12-07T04:48:49;7.30;97.00
30999;DHT22;20549;50.042;8.968;2022-12-07T04:51:22;7.40;97.00
30999;DHT22;20549;50.042;8.968;2022-12-07T04:53:48;7.40;97.00
30999;DHT22;20549;50.042;8.968;2022-12-07T04:56:15;7.40;97.00
30999;DHT22;20549;50.042;8.968;2022-12-07T04:58:41;7.40;96.90
30999;DHT22;20549;50.042;8.968;2022-12-07T05:01:07;7.40;96.90
30999;DHT22;20549;50.042;8.968;2022-12-07T05:03:35;7.40;96.80
30999;DHT22;20549;50.042;8.968;2022-12-07T05:06:00;7.40;96.70
30999;DHT22;20549;50.042;8.968;2022-12-07T05:08:27;7.40;96.70
30999;DHT22;20549;50.042;8.968;2022-12-07T05:10:54;7.40;96.70
30999;DHT22;20549;50.042;8.968;2022-12-07T05:13:20;7.40;96.60
30999;DHT22;20549;50.042;8.968;2022-12-07T05:15:47;7.50;96.50
30999;DHT22;20549;50.042;8.968;2022-12-07T05:18:14;7.40;96.50
30999;DHT22;20549;50.042;8.968;2022-12-07T05:20:40;7.40;96.50
30999;DHT22;20549;50.042;8.968;2022-12-07T05:23:07;7.40;96.40
30999;DHT22;20549;50.042;8.968;2022-12-07T05:25:33;7.50;96.40
30999;DHT22;20549;50.042;8.968;2022-12-07T05:28:00;7.50;96.40
30999;DHT22;20549;50.042;8.968;2022-12-07T05:30:26;7.50;96.40
30999;DHT22;20549;50.042;8.968;2022-12-07T05:32:53;7.50;96.40
30999;DHT22;20549;50.042;8.968;2022-12-07T05:35:19;7.50;96.40
30999;DHT22;20549;50.042;8.968;2022-12-07T05:37:46;7.50;96.50
30999;DHT22;20549;50.042;8.968;2022-12-07T05:40:13;7.50;96.50
30999;DHT22;20549;50.042;8.968;2022-12-07T05:42:39;7.50;96.50
30999;DHT22;20549;50.042;8.968;2022-12-07T05:45:06;7.50;96.50
30999;DHT22;20549;50.042;8.968;2022-12-07T05:47:32;7.50;96.50
30999;DHT22;20549;50.042;8.968;2022-12-07T05:49:59;7.60;96.50
30999;DHT22;20549;50.042;8.968;2022-12-07T05:52:26;7.60;96.40
30999;DHT22;20549;50.042;8.968;2022-12-07T05:54:52;7.60;96.20
30999;DHT22;20549;50.042;8.968;2022-12-07T05:57:19;7.60;96.10
30999;DHT22;20549;50.042;8.968;2022-12-07T05:59:45;7.60;96.00
30999;DHT22;20549;50.042;8.968;2022-12-07T06:02:13;7.60;96.00
30999;DHT22;20549;50.042;8.968;2022-12-07T06:04:43;7.60;96.00
30999;DHT22;20549;50.042;8.968;2022-12-07T06:07:05;7.60;96.00
30999;DHT22;20549;50.042;8.968;2022-12-07T06:09:32;7.60;96.10
30999;DHT22;20549;50.042;8.968;2022-12-07T06:11:58;7.60;96.30
30999;DHT22;20549;50.042;8.968;2022-12-07T06:14:43;7.60;96.30
30999;DHT22;20549;50.042;8.968;2022-12-07T06:17:10;7.60;96.30
30999;DHT22;20549;50.042;8.968;2022-12-07T06:19:36;7.60;96.40
30999;DHT22;20549;50.042;8.968;2022-12-07T06:22:03;7.60;96.40
30999;DHT22;20549;50.042;8.968;2022-12-07T06:24:30;7.60;96.40
30999;DHT22;20549;50.042;8.968;2022-12-07T06:26:56;7.70;96.50
30999;DHT22;20549;50.042;8.968;2022-12-07T06:29:23;7.70;96.40
30999;DHT22;20549;50.042;8.968;2022-12-07T06:31:49;7.70;96.40
30999;DHT22;20549;50.042;8.968;2022-12-07T06:34:17;7.70;96.40
30999;DHT22;20549;50.042;8.968;2022-12-07T06:36:43;7.70;96.30
30999;DHT22;20549;50.042;8.968;2022-12-07T06:39:09;7.80;96.30
30999;DHT22;20549;50.042;8.968;2022-12-07T06:41:38;7.80;96.30
30999;DHT22;20549;50.042;8.968;2022-12-07T06:44:05;7.80;96.20
30999;DHT22;20549;50.042;8.968;2022-12-07T06:46:32;7.80;96.10
30999;DHT22;20549;50.042;8.968;2022-12-07T06:48:58;7.80;96.10
30999;DHT22;20549;50.042;8.968;2022-12-07T06:51:25;7.90;96.00
30999;DHT22;20549;50.042;8.968;2022-12-07T06:53:51;7.90;96.00
30999;DHT22;20549;50.042;8.968;2022-12-07T06:56:19;7.90;95.90
30999;DHT22;20549;50.042;8.968;2022-12-07T06:58:44;7.90;95.80
30999;DHT22;20549;50.042;8.968;2022-12-07T07:01:15;7.90;95.70
30999;DHT22;20549;50.042;8.968;2022-12-07T07:03:38;7.90;95.70
30999;DHT22;20549;50.042;8.968;2022-12-07T07:06:04;7.80;95.60
30999;DHT22;20549;50.042;8.968;2022-12-07T07:08:31;7.80;95.70
30999;DHT22;20549;50.042;8.968;2022-12-07T07:10:57;7.80;95.70
30999;DHT22;20549;50.042;8.968;2022-12-07T07:13:24;7.80;95.80
30999;DHT22;20549;50.042;8.968;2022-12-07T07:15:51;7.80;95.80
30999;DHT22;20549;50.042;8.968;2022-12-07T07:18:17;7.80;95.80
30999;DHT22;20549;50.042;8.968;2022-12-07T07:20:44;7.80;95.70
30999;DHT22;20549;50.042;8.968;2022-12-07T07:23:10;7.80;95.80
30999;DHT22;20549;50.042;8.968;2022-12-07T07:25:37;7.80;96.10
30999;DHT22;20549;50.042;8.968;2022-12-07T07:28:04;7.80;96.00
30999;DHT22;20549;50.042;8.968;2022-12-07T07:30:30;7.90;96.10
30999;DHT22;20549;50.042;8.968;2022-12-07T07:33:00;7.90;96.10
30999;DHT22;20549;50.042;8.968;2022-12-07T07:35:27;7.90;96.20
30999;DHT22;20549;50.042;8.968;2022-12-07T07:37:53;7.90;96.20
30999;DHT22;20549;50.042;8.968;2022-12-07T07:40:19;7.90;96.30
30999;DHT22;20549;50.042;8.968;2022-12-07T07:42:52;8.00;96.30
30999;DHT22;20549;50.042;8.968;2022-12-07T07:45:19;8.00;96.20
30999;DHT22;20549;50.042;8.968;2022-12-07T07:47:45;8.00;96.10
30999;DHT22;20549;50.042;8.968;2022-12-07T07:50:12;8.00;96.10
30999;DHT22;20549;50.042;8.968;2022-12-07T07:52:38;8.10;96.00
30999;DHT22;20549;50.042;8.968;2022-12-07T07:55:05;8.10;96.00
30999;DHT22;20549;50.042;8.968;2022-12-07T07:57:31;8.10;96.00
30999;DHT22;20549;50.042;8.968;2022-12-07T07:59:58;8.10;96.10
30999;DHT22;20549;50.042;8.968;2022-12-07T08:02:25;8.10;96.10
30999;DHT22;20549;50.042;8.968;2022-12-07T08:04:51;8.20;96.10
30999;DHT22;20549;50.042;8.968;2022-12-07T08:07:18;8.20;96.00
30999;DHT22;20549;50.042;8.968;2022-12-07T08:09:44;8.20;95.90
30999;DHT22;20549;50.042;8.968;2022-12-07T08:12:11;8.20;95.90
30999;DHT22;20549;50.042;8.968;2022-12-07T08:14:37;8.30;95.90
30999;DHT22;20549;50.042;8.968;2022-12-07T08:17:04;8.30;95.90
30999;DHT22;20549;50.042;8.968;2022-12-07T08:19:31;8.30;95.90
30999;DHT22;20549;50.042;8.968;2022-12-07T08:21:57;8.30;95.80
30999;DHT22;20549;50.042;8.968;2022-12-07T08:24:24;8.40;95.60
30999;DHT22;20549;50.042;8.968;2022-12-07T08:26:50;8.40;95.50
30999;DHT22;20549;50.042;8.968;2022-12-07T08:29:17;8.40;95.30
30999;DHT22;20549;50.042;8.968;2022-12-07T08:31:44;8.40;95.30
30999;DHT22;20549;50.042;8.968;2022-12-07T08:34:11;8.40;95.20
30999;DHT22;20549;50.042;8.968;2022-12-07T08:36:37;8.40;95.30
30999;DHT22;20549;50.042;8.968;2022-12-07T08:39:03;8.50;95.50
30999;DHT22;20549;50.042;8.968;2022-12-07T08:41:30;8.50;95.60
30999;DHT22;20549;50.042;8.968;2022-12-07T08:43:56;8.50;95.70
30999;DHT22;20549;50.042;8.968;2022-12-07T08:46:24;8.60;95.60
30999;DHT22;20549;50.042;8.968;2022-12-07T08:48:54;8.60;95.60
30999;DHT22;20549;50.042;8.968;2022-12-07T08:51:16;8.60;95.70
30999;DHT22;20549;50.042;8.968;2022-12-07T08:53:43;8.70;95.80
30999;DHT22;20549;50.042;8.968;2022-12-07T08:56:09;8.80;95.80
30999;DHT22;20549;50.042;8.968;2022-12-07T08:58:36;8.90;95.90
30999;DHT22;20549;50.042;8.968;2022-12-07T09:01:03;9.00;95.90
30999;DHT22;20549;50.042;8.968;2022-12-07T09:03:29;9.00;95.60
30999;DHT22;20549;50.042;8.968;2022-12-07T09:05:56;9.10;95.40
30999;DHT22;20549;50.042;8.968;2022-12-07T09:08:22;9.20;95.00
30999;DHT22;20549;50.042;8.968;2022-12-07T09:10:49;9.20;94.60
30999;DHT22;20549;50.042;8.968;2022-12-07T09:13:15;9.20;94.20
30999;DHT22;20549;50.042;8.968;2022-12-07T09:15:42;9.20;93.90
30999;DHT22;20549;50.042;8.968;2022-12-07T09:18:09;9.20;93.60
30999;DHT22;20549;50.042;8.968;2022-12-07T09:20:35;9.20;93.40
30999;DHT22;20549;50.042;8.968;2022-12-07T09:23:02;9.20;93.10
30999;DHT22;20549;50.042;8.968;2022-12-07T09:25:28;9.10;92.80
30999;DHT22;20549;50.042;8.968;2022-12-07T09:27:56;9.10;92.60
30999;DHT22;20549;50.042;8.968;2022-12-07T09:30:22;9.00;92.30
30999;DHT22;20549;50.042;8.968;2022-12-07T09:32:48;8.90;92.30
30999;DHT22;20549;50.042;8.968;2022-12-07T09:35:15;8.80;92.30
30999;DHT22;20549;50.042;8.968;2022-12-07T09:37:41;8.70;92.30
30999;DHT22;20549;50.042;8.968;2022-12-07T09:40:08;8.60;92.40
30999;DHT22;20549;50.042;8.968;2022-12-07T09:42:38;8.50;92.70
30999;DHT22;20549;50.042;8.968;2022-12-07T09:45:10;8.50;92.90
30999;DHT22;20549;50.042;8.968;2022-12-07T09:47:33;8.40;93.20
30999;DHT22;20549;50.042;8.968;2022-12-07T09:50:03;8.40;93.50
30999;DHT22;20549;50.042;8.968;2022-12-07T09:52:29;8.30;93.70
30999;DHT22;20549;50.042;8.968;2022-12-07T09:54:52;8.30;94.00
30999;DHT22;20549;50.042;8.968;2022-12-07T09:57:27;8.30;94.20
30999;DHT22;20549;50.042;8.968;2022-12-07T09:59:48;8.30;94.20
30999;DHT22;20549;50.042;8.968;2022-12-07T10:02:37;8.40;94.20
30999;DHT22;20549;50.042;8.968;2022-12-07T10:05:05;8.30;94.10
30999;DHT22;20549;50.042;8.968;2022-12-07T10:07:31;8.30;94.20
30999;DHT22;20549;50.042;8.968;2022-12-07T10:09:58;8.40;94.70
30999;DHT22;20549;50.042;8.968;2022-12-07T10:12:24;8.40;95.30
30999;DHT22;20549;50.042;8.968;2022-12-07T10:15:01;8.50;95.90
30999;DHT22;20549;50.042;8.968;2022-12-07T10:17:31;8.60;96.30
30999;DHT22;20549;50.042;8.968;2022-12-07T10:20:13;8.70;96.90
30999;DHT22;20549;50.042;8.968;2022-12-07T10:22:34;8.80;96.70
30999;DHT22;20549;50.042;8.968;2022-12-07T10:25:07;9.00;96.50
30999;DHT22;20549;50.042;8.968;2022-12-07T10:27:31;9.10;96.20
30999;DHT22;20549;50.042;8.968;2022-12-07T10:29:57;9.20;95.90
30999;DHT22;20549;50.042;8.968;2022-12-07T10:32:28;9.30;95.50
30999;DHT22;20549;50.042;8.968;2022-12-07T10:35:15;9.40;95.40
30999;DHT22;20549;50.042;8.968;2022-12-07T10:37:19;9.50;95.20
30999;DHT22;20549;50.042;8.968;2022-12-07T10:39:47;9.60;95.10
30999;DHT22;20549;50.042;8.968;2022-12-07T10:44:49;9.80;95.00
30999;DHT22;20549;50.042;8.968;2022-12-07T10:47:18;9.90;94.80
30999;DHT22;20549;50.042;8.968;2022-12-07T10:49:56;10.00;94.50
30999;DHT22;20549;50.042;8.968;2022-12-07T10:52:39;10.10;93.90
30999;DHT22;20549;50.042;8.968;2022-12-07T10:55:53;10.10;93.50
30999;DHT22;20549;50.042;8.968;2022-12-07T11:00:21;10.10;92.50
30999;DHT22;20549;50.042;8.968;2022-12-07T11:05:58;10.10;91.90
30999;DHT22;20549;50.042;8.968;2022-12-07T11:11:22;10.00;91.40
30999;DHT22;20549;50.042;8.968;2022-12-07T11:13:56;10.00;91.60
30999;DHT22;20549;50.042;8.968;2022-12-07T11:17:14;9.90;91.80
30999;DHT22;20549;50.042;8.968;2022-12-07T11:19:28;9.80;92.00
30999;DHT22;20549;50.042;8.968;2022-12-07T11:22:06;9.90;92.40
30999;DHT22;20549;50.042;8.968;2022-12-07T11:24:40;9.90;92.70
30999;DHT22;20549;50.042;8.968;2022-12-07T11:32:51;10.20;94.40
30999;DHT22;20549;50.042;8.968;2022-12-07T11:37:48;10.70;94.40
30999;DHT22;20549;50.042;8.968;2022-12-07T11:40:17;10.80;93.80
30999;DHT22;20549;50.042;8.968;2022-12-07T11:42:42;11.00;93.20
30999;DHT22;20549;50.042;8.968;2022-12-07T11:45:15;11.10;93.00
30999;DHT22;20549;50.042;8.968;2022-12-07T11:48:07;11.30;92.40
30999;DHT22;20549;50.042;8.968;2022-12-07T11:50:36;11.40;91.50
30999;DHT22;20549;50.042;8.968;2022-12-07T11:53:01;11.50;90.90
30999;DHT22;20549;50.042;8.968;2022-12-07T11:55:43;11.60;90.30
30999;DHT22;20549;50.042;8.968;2022-12-07T12:01:01;11.70;88.50
30999;DHT22;20549;50.042;8.968;2022-12-07T12:03:28;11.70;87.80
30999;DHT22;20549;50.042;8.968;2022-12-07T12:05:52;11.70;87.20
30999;DHT22;20549;50.042;8.968;2022-12-07T12:08:29;11.70;86.40
30999;DHT22;20549;50.042;8.968;2022-12-07T12:11:00;11.70;85.60
30999;DHT22;20549;50.042;8.968;2022-12-07T12:16:47;11.60;85.30
30999;DHT22;20549;50.042;8.968;2022-12-07T12:19:25;11.60;85.30
30999;DHT22;20549;50.042;8.968;2022-12-07T12:21:53;11.60;85.30
30999;DHT22;20549;50.042;8.968;2022-12-07T12:24:18;11.60;85.50
30999;DHT22;20549;50.042;8.968;2022-12-07T12:26:54;11.60;86.00
30999;DHT22;20549;50.042;8.968;2022-12-07T12:32:07;11.60;85.90
30999;DHT22;20549;50.042;8.968;2022-12-07T12:36:59;11.70;85.20
30999;DHT22;20549;50.042;8.968;2022-12-07T12:39:26;11.70;85.40
30999;DHT22;20549;50.042;8.968;2022-12-07T12:41:53;11.70;85.30
30999;DHT22;20549;50.042;8.968;2022-12-07T12:46:58;11.70;84.90
30999;DHT22;20549;50.042;8.968;2022-12-07T12:51:57;11.60;84.20
30999;DHT22;20549;50.042;8.968;2022-12-07T12:54:27;11.60;84.40
30999;DHT22;20549;50.042;8.968;2022-12-07T12:57:13;11.60;84.70
30999;DHT22;20549;50.042;8.968;2022-12-07T13:02:50;11.70;85.00
30999;DHT22;20549;50.042;8.968;2022-12-07T13:05:18;11.70;84.70
30999;DHT22;20549;50.042;8.968;2022-12-07T13:12:57;11.70;83.80
30999;DHT22;20549;50.042;8.968;2022-12-07T13:15:33;11.70;83.50
30999;DHT22;20549;50.042;8.968;2022-12-07T13:17:59;11.60;83.20
30999;DHT22;20549;50.042;8.968;2022-12-07T13:20:44;11.60;83.30
30999;DHT22;20549;50.042;8.968;2022-12-07T13:23:10;11.50;83.40
30999;DHT22;20549;50.042;8.968;2022-12-07T13:25:38;11.50;83.10
30999;DHT22;20549;50.042;8.968;2022-12-07T13:28:16;11.50;82.50
30999;DHT22;20549;50.042;8.968;2022-12-07T13:30:58;11.40;82.50
30999;DHT22;20549;50.042;8.968;2022-12-07T13:33:20;11.40;82.20
30999;DHT22;20549;50.042;8.968;2022-12-07T13:35:47;11.30;82.20
30999;DHT22;20549;50.042;8.968;2022-12-07T13:38:26;11.20;82.20
30999;DHT22;20549;50.042;8.968;2022-12-07T13:41:19;11.20;82.40
30999;DHT22;20549;50.042;8.968;2022-12-07T13:43:49;11.10;82.50
30999;DHT22;20549;50.042;8.968;2022-12-07T13:46:12;11.10;82.90
30999;DHT22;20549;50.042;8.968;2022-12-07T13:48:47;11.00;83.10
30999;DHT22;20549;50.042;8.968;2022-12-07T13:51:27;10.90;83.40
30999;DHT22;20549;50.042;8.968;2022-12-07T13:53:59;10.90;83.70
30999;DHT22;20549;50.042;8.968;2022-12-07T13:56:23;10.80;83.60
30999;DHT22;20549;50.042;8.968;2022-12-07T13:58:48;10.70;83.60
30999;DHT22;20549;50.042;8.968;2022-12-07T14:01:15;10.60;83.70
30999;DHT22;20549;50.042;8.968;2022-12-07T14:03:42;10.60;84.10
30999;DHT22;20549;50.042;8.968;2022-12-07T14:06:22;10.50;84.50
30999;DHT22;20549;50.042;8.968;2022-12-07T14:08:44;10.40;84.80
30999;DHT22;20549;50.042;8.968;2022-12-07T14:11:19;10.30;85.00
30999;DHT22;20549;50.042;8.968;2022-12-07T14:14:01;10.30;85.30
30999;DHT22;20549;50.042;8.968;2022-12-07T14:16:28;10.20;85.30
30999;DHT22;20549;50.042;8.968;2022-12-07T14:18:54;10.10;85.20
30999;DHT22;20549;50.042;8.968;2022-12-07T14:21:22;9.90;85.00
30999;DHT22;20549;50.042;8.968;2022-12-07T14:24:01;9.80;85.10
30999;DHT22;20549;50.042;8.968;2022-12-07T14:26:14;9.70;85.30
30999;DHT22;20549;50.042;8.968;2022-12-07T14:28:41;9.60;85.50
30999;DHT22;20549;50.042;8.968;2022-12-07T14:31:13;9.50;86.00
30999;DHT22;20549;50.042;8.968;2022-12-07T14:33:39;9.30;86.50
30999;DHT22;20549;50.042;8.968;2022-12-07T14:36:07;9.30;87.10
30999;DHT22;20549;50.042;8.968;2022-12-07T14:38:32;9.20;87.80
30999;DHT22;20549;50.042;8.968;2022-12-07T14:40:59;9.20;88.50
30999;DHT22;20549;50.042;8.968;2022-12-07T14:43:25;9.20;89.80
30999;DHT22;20549;50.042;8.968;2022-12-07T14:45:52;9.10;89.30
30999;DHT22;20549;50.042;8.968;2022-12-07T14:48:18;9.10;89.50
30999;DHT22;20549;50.042;8.968;2022-12-07T14:50:45;9.10;89.60
30999;DHT22;20549;50.042;8.968;2022-12-07T14:53:18;9.10;89.80
30999;DHT22;20549;50.042;8.968;2022-12-07T14:55:44;9.10;90.00
30999;DHT22;20549;50.042;8.968;2022-12-07T14:58:13;9.10;90.10
30999;DHT22;20549;50.042;8.968;2022-12-07T15:00:40;9.10;90.20
30999;DHT22;20549;50.042;8.968;2022-12-07T15:03:06;9.10;90.30
30999;DHT22;20549;50.042;8.968;2022-12-07T15:05:33;9.10;90.30
30999;DHT22;20549;50.042;8.968;2022-12-07T15:08:00;9.10;90.40
30999;DHT22;20549;50.042;8.968;2022-12-07T15:10:27;9.10;90.40
30999;DHT22;20549;50.042;8.968;2022-12-07T15:12:58;9.10;90.40
30999;DHT22;20549;50.042;8.968;2022-12-07T15:15:22;9.10;90.50
30999;DHT22;20549;50.042;8.968;2022-12-07T15:17:48;9.10;90.50
30999;DHT22;20549;50.042;8.968;2022-12-07T15:20:15;9.10;90.60
30999;DHT22;20549;50.042;8.968;2022-12-07T15:22:42;9.10;90.50
30999;DHT22;20549;50.042;8.968;2022-12-07T15:25:09;9.10;90.50
30999;DHT22;20549;50.042;8.968;2022-12-07T15:27:35;9.20;90.70
30999;DHT22;20549;50.042;8.968;2022-12-07T15:30:02;9.20;90.90
30999;DHT22;20549;50.042;8.968;2022-12-07T15:32:28;9.20;90.80
30999;DHT22;20549;50.042;8.968;2022-12-07T15:34:54;9.20;90.60
30999;DHT22;20549;50.042;8.968;2022-12-07T15:37:21;9.20;90.50
30999;DHT22;20549;50.042;8.968;2022-12-07T15:39:48;9.20;90.30
30999;DHT22;20549;50.042;8.968;2022-12-07T15:42:14;9.10;90.20
30999;DHT22;20549;50.042;8.968;2022-12-07T15:44:41;9.10;90.20
30999;DHT22;20549;50.042;8.968;2022-12-07T15:47:26;9.00;90.10
30999;DHT22;20549;50.042;8.968;2022-12-07T15:49:52;9.00;90.20
30999;DHT22;20549;50.042;8.968;2022-12-07T15:52:19;8.90;90.20
30999;DHT22;20549;50.042;8.968;2022-12-07T15:54:45;8.80;90.40
30999;DHT22;20549;50.042;8.968;2022-12-07T15:57:12;8.80;90.50
30999;DHT22;20549;50.042;8.968;2022-12-07T15:59:39;8.70;90.80
30999;DHT22;20549;50.042;8.968;2022-12-07T16:02:05;8.60;90.90
30999;DHT22;20549;50.042;8.968;2022-12-07T16:04:32;8.60;91.00
30999;DHT22;20549;50.042;8.968;2022-12-07T16:06:58;8.50;91.20
30999;DHT22;20549;50.042;8.968;2022-12-07T16:09:25;8.50;91.40
30999;DHT22;20549;50.042;8.968;2022-12-07T16:11:52;8.40;91.40
30999;DHT22;20549;50.042;8.968;2022-12-07T16:14:18;8.30;91.50
30999;DHT22;20549;50.042;8.968;2022-12-07T16:16:45;8.30;91.30
30999;DHT22;20549;50.042;8.968;2022-12-07T16:19:11;8.30;91.70
30999;DHT22;20549;50.042;8.968;2022-12-07T16:21:38;8.20;91.90
30999;DHT22;20549;50.042;8.968;2022-12-07T16:24:05;8.20;92.10
30999;DHT22;20549;50.042;8.968;2022-12-07T16:26:31;8.10;92.20
30999;DHT22;20549;50.042;8.968;2022-12-07T16:28:58;8.10;92.50
30999;DHT22;20549;50.042;8.968;2022-12-07T16:31:25;8.00;92.60
30999;DHT22;20549;50.042;8.968;2022-12-07T16:33:54;8.00;92.90
30999;DHT22;20549;50.042;8.968;2022-12-07T16:36:17;8.00;93.10
30999;DHT22;20549;50.042;8.968;2022-12-07T16:38:44;8.00;93.30
30999;DHT22;20549;50.042;8.968;2022-12-07T16:41:11;8.00;93.50
30999;DHT22;20549;50.042;8.968;2022-12-07T16:43:37;8.00;93.70
30999;DHT22;20549;50.042;8.968;2022-12-07T16:46:04;8.00;93.90
30999;DHT22;20549;50.042;8.968;2022-12-07T16:48:30;8.00;94.00